createdAt,value
2017-06-12T00:00:13.633Z,22.30
2017-06-12T00:02:41.938Z,22.30
2017-06-12T00:05:11.002Z,22.40
2017-06-12T00:07:39.285Z,22.30
2017-06-12T00:10:07.666Z,22.40
2017-06-12T00:12:36.036Z,22.50
2017-06-12T00:15:04.418Z,22.40
2017-06-12T00:17:32.794Z,22.40
2017-06-12T00:20:01.069Z,22.30
2017-06-12T00:22:29.450Z,22.30
2017-06-12T00:24:57.704Z,22.20
2017-06-12T00:27:26.107Z,22.20
2017-06-12T00:29:54.381Z,22.10
2017-06-12T00:32:22.647Z,22.00
2017-06-12T00:34:50.936Z,22.00
2017-06-12T00:37:19.984Z,21.90
2017-06-12T00:39:48.288Z,21.90
2017-06-12T00:42:16.673Z,21.90
2017-06-12T00:44:44.936Z,21.90
2017-06-12T00:47:13.233Z,21.90
2017-06-12T00:49:41.501Z,21.90
2017-06-12T00:52:09.887Z,21.80
2017-06-12T00:54:38.264Z,21.80
2017-06-12T00:57:06.646Z,21.90
2017-06-12T00:59:35.018Z,21.90
2017-06-12T01:02:03.295Z,21.80
2017-06-12T01:04:31.686Z,21.80
2017-06-12T01:06:59.948Z,21.80
2017-06-12T01:09:28.224Z,21.80
2017-06-12T01:11:56.617Z,21.80
2017-06-12T01:14:24.889Z,21.80
2017-06-12T01:16:53.274Z,21.80
2017-06-12T01:19:21.653Z,21.90
2017-06-12T01:22:01.899Z,21.90
2017-06-12T01:24:30.196Z,21.90
2017-06-12T01:26:58.543Z,21.90
2017-06-12T01:29:26.944Z,21.80
2017-06-12T01:31:55.257Z,21.80
2017-06-12T01:34:23.603Z,21.80
2017-06-12T01:36:51.880Z,21.90
2017-06-12T01:39:20.159Z,21.80
2017-06-12T01:41:48.441Z,21.80
2017-06-12T01:44:16.810Z,21.80
2017-06-12T01:46:45.186Z,21.90
2017-06-12T01:49:13.451Z,21.80
2017-06-12T01:51:41.745Z,21.70
2017-06-12T01:54:10.121Z,21.70
2017-06-12T01:56:38.409Z,21.60
2017-06-12T01:59:06.698Z,21.50
2017-06-12T02:01:35.720Z,21.60
2017-06-12T02:04:04.018Z,21.60
2017-06-12T02:06:32.278Z,21.60
2017-06-12T02:09:00.606Z,21.50
2017-06-12T02:11:28.979Z,21.40
2017-06-12T02:13:57.256Z,21.40
2017-06-12T02:16:25.652Z,21.40
2017-06-12T02:18:53.906Z,21.40
2017-06-12T02:21:22.188Z,21.40
2017-06-12T02:23:50.513Z,21.40
2017-06-12T02:26:19.569Z,21.40
2017-06-12T02:28:47.848Z,21.40
2017-06-12T02:31:16.118Z,21.40
2017-06-12T02:33:44.494Z,21.40
2017-06-12T02:36:12.774Z,21.20
2017-06-12T02:38:41.048Z,21.20
2017-06-12T02:41:09.444Z,21.20
2017-06-12T02:43:37.895Z,21.20
2017-06-12T02:46:06.224Z,21.20
2017-06-12T02:48:34.518Z,21.20
2017-06-12T02:51:02.882Z,21.20
2017-06-12T02:53:31.136Z,21.10
2017-06-12T02:55:59.412Z,21.10
2017-06-12T02:58:27.674Z,21.10
2017-06-12T03:00:56.014Z,21.10
2017-06-12T03:03:24.281Z,21.10
2017-06-12T03:05:52.670Z,21.10
2017-06-12T03:08:21.040Z,21.10
2017-06-12T03:10:49.321Z,21.10
2017-06-12T03:13:17.706Z,21.20
2017-06-12T03:15:45.965Z,21.20
2017-06-12T03:18:14.243Z,21.20
2017-06-12T03:20:42.561Z,21.20
2017-06-12T03:23:10.923Z,21.10
2017-06-12T03:25:39.346Z,21.00
2017-06-12T03:28:08.365Z,21.10
2017-06-12T03:30:36.633Z,21.10
2017-06-12T03:33:04.959Z,21.10
2017-06-12T03:35:33.436Z,21.00
2017-06-12T03:38:01.813Z,21.10
2017-06-12T03:40:30.090Z,21.20
2017-06-12T03:42:58.422Z,21.10
2017-06-12T03:45:26.744Z,21.10
2017-06-12T03:47:55.025Z,21.10
2017-06-12T03:50:23.397Z,21.10
2017-06-12T03:52:51.677Z,21.20
2017-06-12T03:55:19.936Z,21.10
2017-06-12T03:57:48.212Z,21.10
2017-06-12T04:00:16.472Z,21.20
2017-06-12T04:02:44.756Z,21.10
2017-06-12T04:05:13.066Z,21.20
2017-06-12T04:07:41.447Z,21.10
2017-06-12T04:10:09.824Z,21.20
2017-06-12T04:12:38.204Z,21.20
2017-06-12T04:15:06.489Z,21.30
2017-06-12T04:17:34.776Z,21.30
2017-06-12T04:20:03.146Z,21.40
2017-06-12T04:22:31.416Z,21.50
2017-06-12T04:24:59.690Z,21.50
2017-06-12T04:27:27.965Z,21.50
2017-06-12T04:29:56.294Z,21.60
2017-06-12T04:32:24.619Z,21.60
2017-06-12T04:34:52.901Z,21.60
2017-06-12T04:37:21.285Z,21.50
2017-06-12T04:39:49.568Z,21.60
2017-06-12T04:42:17.978Z,21.60
2017-06-12T04:44:47.025Z,21.60
2017-06-12T04:47:15.339Z,21.60
2017-06-12T04:49:43.647Z,21.50
2017-06-12T04:52:11.926Z,21.50
2017-06-12T04:54:41.047Z,21.60
2017-06-12T04:57:09.329Z,21.60
2017-06-12T04:59:37.620Z,21.60
2017-06-12T05:02:05.936Z,21.60
2017-06-12T05:04:34.209Z,21.60
2017-06-12T05:07:02.503Z,21.50
2017-06-12T05:09:30.780Z,21.40
2017-06-12T05:11:59.816Z,21.30
2017-06-12T05:14:28.125Z,21.20
2017-06-12T05:16:56.468Z,21.30
2017-06-12T05:19:24.780Z,21.40
2017-06-12T05:21:53.091Z,21.40
2017-06-12T05:24:21.402Z,21.40
2017-06-12T05:26:49.679Z,21.30
2017-06-12T05:29:17.997Z,21.30
2017-06-12T05:31:46.387Z,21.30
2017-06-12T05:34:14.752Z,21.30
2017-06-12T05:36:43.146Z,21.30
2017-06-12T05:39:11.521Z,21.30
2017-06-12T05:41:39.825Z,21.40
2017-06-12T05:44:09.017Z,21.30
2017-06-12T05:46:38.112Z,21.30
2017-06-12T05:49:07.194Z,21.30
2017-06-12T05:51:35.509Z,21.20
2017-06-12T05:54:03.783Z,21.30
2017-06-12T05:56:32.096Z,21.20
2017-06-12T05:59:00.375Z,21.20
2017-06-12T06:01:28.678Z,21.00
2017-06-12T06:03:57.057Z,20.90
2017-06-12T06:06:25.332Z,20.90
2017-06-12T06:08:53.741Z,20.90
2017-06-12T06:11:22.790Z,20.90
2017-06-12T06:13:51.271Z,20.90
2017-06-12T06:16:19.543Z,20.80
2017-06-12T06:18:47.864Z,20.70
2017-06-12T06:21:16.260Z,20.70
2017-06-12T06:23:44.610Z,20.80
2017-06-12T06:26:12.884Z,20.80
2017-06-12T06:28:41.162Z,20.80
2017-06-12T06:31:10.590Z,21.00
2017-06-12T06:33:39.630Z,21.20
2017-06-12T06:36:07.952Z,21.20
2017-06-12T06:38:36.337Z,21.40
2017-06-12T06:41:05.376Z,21.40
2017-06-12T06:43:33.704Z,21.40
2017-06-12T06:46:02.068Z,21.50
2017-06-12T06:48:30.441Z,21.20
2017-06-12T06:50:58.721Z,20.80
2017-06-12T06:53:27.131Z,20.80
2017-06-12T06:55:56.209Z,20.80
2017-06-12T06:58:24.679Z,20.70
2017-06-12T07:00:52.979Z,20.80
2017-06-12T07:03:22.150Z,21.10
2017-06-12T07:05:50.454Z,21.10
2017-06-12T07:08:18.833Z,21.40
2017-06-12T07:10:47.085Z,21.40
2017-06-12T07:13:15.464Z,21.40
2017-06-12T07:15:43.740Z,21.30
2017-06-12T07:18:12.020Z,21.20
2017-06-12T07:20:41.077Z,21.30
2017-06-12T07:23:09.353Z,21.30
2017-06-12T07:25:37.842Z,21.40
2017-06-12T07:28:06.505Z,21.60
2017-06-12T07:30:34.774Z,21.60
2017-06-12T07:33:03.082Z,21.80
2017-06-12T07:35:31.347Z,21.70
2017-06-12T07:37:59.648Z,21.60
2017-06-12T07:40:27.907Z,21.60
2017-06-12T07:42:56.183Z,21.60
2017-06-12T07:45:24.541Z,21.40
2017-06-12T07:47:52.817Z,21.30
2017-06-12T07:50:21.114Z,21.30
2017-06-12T07:52:49.366Z,21.40
2017-06-12T07:55:17.669Z,21.30
2017-06-12T07:57:45.917Z,21.20
2017-06-12T08:00:14.225Z,21.30
2017-06-12T08:02:42.481Z,21.40
2017-06-12T08:05:10.756Z,21.30
2017-06-12T08:07:39.077Z,21.40
2017-06-12T08:10:08.119Z,21.70
2017-06-12T08:12:36.438Z,21.70
2017-06-12T08:15:04.806Z,21.80
2017-06-12T08:17:33.079Z,22.10
2017-06-12T08:20:01.351Z,22.10
2017-06-12T08:22:29.614Z,22.10
2017-06-12T08:24:57.912Z,22.10
2017-06-12T08:27:26.181Z,22.10
2017-06-12T08:29:54.485Z,22.00
2017-06-12T08:32:22.751Z,22.10
2017-06-12T08:34:51.018Z,22.40
2017-06-12T08:37:19.296Z,22.50
2017-06-12T08:39:47.600Z,22.40
2017-06-12T08:42:16.670Z,22.30
2017-06-12T08:44:45.053Z,22.30
2017-06-12T08:47:13.334Z,22.20
2017-06-12T08:49:41.721Z,22.20
2017-06-12T08:52:10.088Z,22.10
2017-06-12T08:54:38.467Z,22.00
2017-06-12T08:57:06.757Z,21.90
2017-06-12T08:59:35.124Z,22.00
2017-06-12T09:02:03.400Z,22.10
2017-06-12T09:04:31.656Z,22.10
2017-06-12T09:06:59.938Z,22.20
2017-06-12T09:09:28.204Z,22.30
2017-06-12T09:11:56.468Z,22.40
2017-06-12T09:14:24.784Z,22.50
2017-06-12T09:16:53.048Z,22.80
2017-06-12T09:19:21.351Z,22.80
2017-06-12T09:21:49.713Z,22.70
2017-06-12T09:24:17.995Z,22.50
2017-06-12T09:26:46.368Z,22.40
2017-06-12T09:29:14.641Z,22.30
2017-06-12T09:31:42.913Z,22.30
2017-06-12T09:34:11.218Z,22.20
2017-06-12T09:36:39.496Z,22.20
2017-06-12T09:39:07.788Z,22.30
2017-06-12T09:41:36.870Z,22.20
2017-06-12T09:44:05.238Z,22.20
2017-06-12T09:46:33.614Z,22.20
2017-06-12T09:49:01.872Z,22.20
2017-06-12T09:51:30.180Z,22.20
2017-06-12T09:53:58.554Z,22.10
2017-06-12T09:56:26.822Z,22.30
2017-06-12T09:58:55.305Z,22.30
2017-06-12T10:01:23.569Z,22.30
2017-06-12T10:03:51.960Z,22.40
2017-06-12T10:06:20.241Z,22.20
2017-06-12T10:08:48.517Z,22.10
2017-06-12T10:11:16.895Z,22.10
2017-06-12T10:13:45.177Z,22.20
2017-06-12T10:16:13.472Z,22.20
2017-06-12T10:18:41.836Z,22.00
2017-06-12T10:21:10.206Z,22.10
2017-06-12T10:23:38.484Z,22.30
2017-06-12T10:26:06.762Z,22.60
2017-06-12T10:28:35.138Z,22.70
2017-06-12T10:31:03.393Z,22.60
2017-06-12T10:33:31.693Z,22.40
2017-06-12T10:35:59.974Z,22.40
2017-06-12T10:38:28.244Z,22.60
2017-06-12T10:40:56.554Z,22.80
2017-06-12T10:43:25.625Z,23.00
2017-06-12T10:45:53.882Z,23.00
2017-06-12T10:48:22.176Z,22.70
2017-06-12T10:50:50.468Z,22.60
2017-06-12T10:53:18.765Z,22.70
2017-06-12T10:55:47.808Z,23.10
2017-06-12T10:58:16.100Z,23.00
2017-06-12T11:00:44.485Z,23.50
2017-06-12T11:03:12.856Z,23.60
2017-06-12T11:05:41.157Z,23.30
2017-06-12T11:08:10.231Z,23.40
2017-06-12T11:10:38.491Z,23.30
2017-06-12T11:13:06.828Z,23.50
2017-06-12T11:15:35.101Z,23.20
2017-06-12T11:18:04.263Z,23.00
2017-06-12T11:20:32.520Z,22.90
2017-06-12T11:23:00.784Z,23.00
2017-06-12T11:25:34.697Z,22.90
2017-06-12T11:28:02.961Z,23.30
2017-06-12T11:30:31.267Z,23.70
2017-06-12T11:32:59.544Z,24.00
2017-06-12T11:35:27.824Z,23.80
2017-06-12T11:37:56.221Z,23.90
2017-06-12T11:40:24.484Z,24.30
2017-06-12T11:42:52.796Z,24.50
2017-06-12T11:45:21.854Z,24.60
2017-06-12T11:47:50.122Z,24.60
2017-06-12T11:50:18.411Z,24.30
2017-06-12T11:52:46.679Z,24.30
2017-06-12T11:55:15.067Z,24.00
2017-06-12T11:57:43.358Z,24.00
2017-06-12T12:00:11.630Z,23.70
2017-06-12T12:02:39.900Z,23.60
2017-06-12T12:05:08.170Z,23.40
2017-06-12T12:07:36.565Z,23.20
2017-06-12T12:10:04.881Z,23.00
2017-06-12T12:12:33.929Z,23.60
2017-06-12T12:15:02.308Z,23.50
2017-06-12T12:17:30.595Z,24.30
2017-06-12T12:19:58.896Z,24.90
2017-06-12T12:22:27.181Z,26.20
2017-06-12T12:24:55.433Z,25.80
2017-06-12T12:27:23.736Z,25.10
2017-06-12T12:29:52.117Z,25.10
2017-06-12T12:32:20.484Z,24.50
2017-06-12T12:34:48.752Z,23.50
2017-06-12T12:37:17.042Z,22.80
2017-06-12T12:39:45.446Z,22.90
2017-06-12T12:42:13.722Z,23.00
2017-06-12T12:44:42.033Z,23.20
2017-06-12T12:47:10.293Z,23.90
2017-06-12T12:49:38.654Z,24.40
2017-06-12T12:52:06.919Z,24.00
2017-06-12T12:54:35.190Z,23.40
2017-06-12T12:57:03.561Z,22.90
2017-06-12T12:59:31.824Z,22.60
2017-06-12T13:02:00.093Z,22.60
2017-06-12T13:04:28.394Z,22.70
2017-06-12T13:06:56.672Z,23.60
2017-06-12T13:09:25.054Z,23.90
2017-06-12T13:11:53.317Z,23.40
2017-06-12T13:14:21.612Z,22.90
2017-06-12T13:16:49.950Z,22.60
2017-06-12T13:19:18.200Z,22.50
2017-06-12T13:21:46.602Z,22.50
2017-06-12T13:24:14.981Z,23.00
2017-06-12T13:26:43.260Z,23.30
2017-06-12T13:29:11.562Z,23.20
2017-06-12T13:31:40.618Z,22.70
2017-06-12T13:34:09.019Z,22.70
2017-06-12T13:36:37.412Z,22.80
2017-06-12T13:39:05.685Z,22.80
2017-06-12T13:41:33.982Z,22.90
2017-06-12T13:44:03.031Z,25.80
2017-06-12T13:46:31.336Z,25.80
2017-06-12T13:48:59.617Z,27.90
2017-06-12T13:51:27.879Z,29.30
2017-06-12T13:53:56.260Z,29.60
2017-06-12T13:56:24.535Z,27.40
2017-06-12T13:58:52.792Z,25.30
2017-06-12T14:01:21.164Z,24.00
2017-06-12T14:03:49.430Z,23.50
2017-06-12T14:06:18.505Z,23.20
2017-06-12T14:08:46.785Z,23.10
2017-06-12T14:11:15.060Z,23.20
2017-06-12T14:13:43.358Z,23.40
2017-06-12T14:16:11.616Z,23.40
2017-06-12T14:18:39.905Z,23.30
2017-06-12T14:21:08.172Z,22.90
2017-06-12T14:23:36.541Z,22.70
2017-06-12T14:26:04.834Z,22.80
2017-06-12T14:28:33.105Z,23.20
2017-06-12T14:31:01.489Z,25.10
2017-06-12T14:33:29.787Z,25.60
2017-06-12T14:35:58.962Z,24.60
2017-06-12T14:38:27.265Z,24.60
2017-06-12T14:40:56.297Z,25.60
2017-06-12T14:43:24.572Z,25.60
2017-06-12T14:45:52.877Z,24.70
2017-06-12T14:48:21.175Z,24.00
2017-06-12T14:50:49.540Z,23.50
2017-06-12T14:53:17.933Z,23.20
2017-06-12T14:55:46.297Z,23.40
2017-06-12T14:58:14.679Z,23.20
2017-06-12T15:00:42.952Z,22.90
2017-06-12T15:03:12.067Z,23.40
2017-06-12T15:05:41.128Z,23.10
2017-06-12T15:08:09.407Z,23.00
2017-06-12T15:10:37.788Z,23.10
2017-06-12T15:13:06.049Z,24.40
2017-06-12T15:15:34.365Z,24.20
2017-06-12T15:18:03.412Z,24.30
2017-06-12T15:20:31.720Z,24.30
2017-06-12T15:23:00.033Z,24.00
2017-06-12T15:25:28.296Z,23.70
2017-06-12T15:27:57.353Z,23.50
2017-06-12T15:30:25.630Z,23.50
2017-06-12T15:32:53.929Z,24.30
2017-06-12T15:35:22.196Z,24.10
2017-06-12T15:37:50.484Z,24.00
2017-06-12T15:40:18.869Z,24.30
2017-06-12T15:42:47.139Z,24.70
2017-06-12T15:45:15.438Z,24.60
2017-06-12T15:47:43.745Z,24.50
2017-06-12T15:50:12.117Z,24.30
2017-06-12T15:52:41.189Z,24.60
2017-06-12T15:55:09.574Z,24.60
2017-06-12T15:57:37.846Z,25.40
2017-06-12T16:00:06.237Z,25.70
2017-06-12T16:02:34.516Z,25.20
2017-06-12T16:05:02.801Z,25.30
2017-06-12T16:07:31.076Z,25.40
2017-06-12T16:09:59.657Z,26.10
2017-06-12T16:12:27.924Z,24.70
2017-06-12T16:14:57.958Z,23.40
2017-06-12T16:17:26.999Z,22.60
2017-06-12T16:19:55.287Z,22.60
2017-06-12T16:22:23.564Z,22.20
2017-06-12T16:24:51.943Z,22.20
2017-06-12T16:27:20.203Z,22.30
2017-06-12T16:29:48.599Z,22.30
2017-06-12T16:32:16.876Z,22.10
2017-06-12T16:34:45.144Z,21.90
2017-06-12T16:37:13.529Z,21.70
2017-06-12T16:39:41.801Z,21.60
2017-06-12T16:42:10.192Z,21.60
2017-06-12T16:44:38.469Z,21.70
2017-06-12T16:47:06.754Z,21.70
2017-06-12T16:49:35.008Z,21.70
2017-06-12T16:52:03.398Z,21.80
2017-06-12T16:54:31.666Z,22.70
2017-06-12T16:56:59.938Z,23.30
2017-06-12T16:59:28.215Z,23.60
2017-06-12T17:01:56.523Z,23.60
2017-06-12T17:04:24.787Z,23.10
2017-06-12T17:06:53.076Z,22.60
2017-06-12T17:09:21.457Z,22.10
2017-06-12T17:11:49.733Z,22.00
2017-06-12T17:14:18.098Z,21.60
2017-06-12T17:16:46.405Z,21.90
2017-06-12T17:19:15.560Z,22.10
2017-06-12T17:21:43.825Z,22.10
2017-06-12T17:24:12.129Z,21.70
2017-06-12T17:26:40.406Z,21.70
2017-06-12T17:29:08.781Z,21.70
2017-06-12T17:31:37.081Z,21.60
2017-06-12T17:34:06.141Z,22.20
2017-06-12T17:36:34.405Z,22.20
2017-06-12T17:39:02.682Z,22.60
2017-06-12T17:41:30.993Z,23.50
2017-06-12T17:43:59.380Z,23.30
2017-06-12T17:46:27.648Z,23.10
2017-06-12T17:48:56.040Z,22.80
2017-06-12T17:51:24.304Z,22.60
2017-06-12T17:53:52.680Z,22.00
2017-06-12T17:56:21.646Z,22.00
2017-06-12T17:58:49.987Z,22.00
2017-06-12T18:01:19.148Z,21.70
2017-06-12T18:03:47.468Z,21.70
2017-06-12T18:06:15.801Z,21.60
2017-06-12T18:08:44.076Z,21.40
2017-06-12T18:11:12.344Z,21.10
2017-06-12T18:13:40.746Z,20.90
2017-06-12T18:16:09.009Z,20.80
2017-06-12T18:18:37.394Z,20.60
2017-06-12T18:21:05.649Z,20.30
2017-06-12T18:23:33.961Z,20.10
2017-06-12T18:26:02.231Z,19.70
2017-06-12T18:28:30.521Z,19.50
2017-06-12T18:30:59.594Z,19.40
2017-06-12T18:33:27.859Z,19.30
2017-06-12T18:35:56.255Z,19.20
2017-06-12T18:38:24.526Z,19.10
2017-06-12T18:40:52.807Z,19.00
2017-06-12T18:43:21.065Z,18.90
2017-06-12T18:45:49.353Z,18.90
2017-06-12T18:48:17.629Z,18.80
2017-06-12T18:50:46.012Z,18.90
2017-06-12T18:53:14.272Z,18.80
2017-06-12T18:55:42.567Z,18.80
2017-06-12T18:58:10.844Z,18.80
2017-06-12T19:00:39.126Z,18.70
2017-06-12T19:03:07.533Z,18.70
2017-06-12T19:05:36.572Z,18.60
2017-06-12T19:08:04.878Z,18.50
2017-06-12T19:10:33.144Z,18.50
2017-06-12T19:13:01.529Z,18.50
2017-06-12T19:15:29.798Z,18.50
2017-06-12T19:17:58.213Z,18.50
2017-06-12T19:20:26.491Z,18.50
2017-06-12T19:22:54.792Z,18.50
2017-06-12T19:25:23.825Z,18.50
2017-06-12T19:27:52.257Z,18.50
2017-06-12T19:30:20.620Z,18.60
2017-06-12T19:32:48.899Z,18.50
2017-06-12T19:35:17.184Z,18.50
2017-06-12T19:37:45.464Z,18.50
2017-06-12T19:40:13.833Z,18.50
2017-06-12T19:42:42.181Z,18.20
2017-06-12T19:45:10.512Z,17.70
2017-06-12T19:47:39.549Z,17.40
2017-06-12T19:50:07.847Z,17.30
2017-06-12T19:52:36.109Z,17.30
2017-06-12T19:55:04.392Z,17.40
2017-06-12T19:57:32.735Z,17.50
2017-06-12T20:00:01.061Z,17.50
2017-06-12T20:02:29.337Z,17.60
2017-06-12T20:04:57.910Z,17.60
2017-06-12T20:07:26.805Z,17.70
2017-06-12T20:09:55.067Z,17.70
2017-06-12T20:12:23.845Z,17.70
2017-06-12T20:14:52.147Z,17.80
2017-06-12T20:17:20.437Z,17.70
2017-06-12T20:19:48.710Z,17.70
2017-06-12T20:22:17.098Z,17.70
2017-06-12T20:24:45.352Z,17.60
2017-06-12T20:27:13.737Z,17.60
2017-06-12T20:29:42.015Z,17.60
2017-06-12T20:32:10.497Z,17.60
2017-06-12T20:34:38.778Z,17.60
2017-06-12T20:37:07.075Z,17.50
2017-06-12T20:39:35.328Z,17.50
2017-06-12T20:42:03.621Z,17.50
2017-06-12T20:44:31.995Z,17.50
2017-06-12T20:47:00.360Z,17.40
2017-06-12T20:49:28.638Z,17.40
2017-06-12T20:51:56.916Z,17.50
2017-06-12T20:54:25.221Z,17.40
2017-06-12T20:56:54.289Z,17.40
2017-06-12T20:59:22.564Z,17.40
2017-06-12T21:01:50.828Z,17.40
2017-06-12T21:04:19.109Z,17.40
2017-06-12T21:06:47.426Z,17.40
2017-06-12T21:09:15.786Z,17.50
2017-06-12T21:11:44.058Z,17.40
2017-06-12T21:14:12.330Z,17.40
2017-06-12T21:16:40.722Z,17.40
2017-06-12T21:19:09.012Z,17.40
2017-06-12T21:21:38.199Z,17.40
2017-06-12T21:24:06.464Z,17.30
2017-06-12T21:26:34.753Z,17.30
2017-06-12T21:29:03.016Z,17.30
2017-06-12T21:31:31.300Z,17.20
2017-06-12T21:33:59.557Z,17.30
2017-06-12T21:36:27.957Z,17.20
2017-06-12T21:38:56.224Z,17.20
2017-06-12T21:41:24.484Z,17.20
2017-06-12T21:43:52.790Z,17.20
2017-06-12T21:46:21.066Z,17.10
2017-06-12T21:48:49.357Z,17.10
2017-06-12T21:51:18.456Z,17.10
2017-06-12T21:53:47.506Z,17.10
2017-06-12T21:56:15.775Z,17.10
2017-06-12T21:58:44.141Z,17.20
2017-06-12T22:01:12.450Z,17.10
2017-06-12T22:03:40.845Z,17.20
2017-06-12T22:06:09.112Z,17.10
2017-06-12T22:08:37.428Z,17.00
2017-06-12T22:11:06.459Z,16.90
2017-06-12T22:13:34.800Z,16.90
2017-06-12T22:16:03.876Z,16.80
2017-06-12T22:18:32.148Z,16.80
2017-06-12T22:21:00.517Z,16.80
2017-06-12T22:23:28.905Z,16.80
2017-06-12T22:25:57.194Z,16.80
2017-06-12T22:28:26.290Z,16.80
2017-06-12T22:30:54.571Z,16.70
2017-06-12T22:33:23.672Z,16.70
2017-06-12T22:35:52.751Z,16.60
2017-06-12T22:38:21.032Z,16.60
2017-06-12T22:40:49.397Z,16.60
2017-06-12T22:43:17.726Z,16.60
2017-06-12T22:45:46.050Z,16.60
2017-06-12T22:48:14.329Z,16.70
2017-06-12T22:50:42.599Z,16.60
2017-06-12T22:53:10.929Z,16.60
2017-06-12T22:55:39.192Z,16.60
2017-06-12T22:58:08.255Z,16.60
2017-06-12T23:00:36.527Z,16.60
2017-06-12T23:03:04.810Z,16.60
2017-06-12T23:05:33.118Z,16.60
2017-06-12T23:08:02.136Z,16.60
2017-06-12T23:10:30.465Z,16.50
2017-06-12T23:12:58.846Z,16.50
2017-06-12T23:15:27.136Z,16.50
2017-06-12T23:17:56.212Z,16.50
2017-06-12T23:20:24.517Z,16.50
2017-06-12T23:22:59.180Z,16.50
2017-06-12T23:25:27.489Z,16.50
2017-06-12T23:27:55.808Z,16.50
2017-06-12T23:30:24.871Z,16.50
2017-06-12T23:32:53.262Z,16.50
2017-06-12T23:35:21.508Z,16.50
2017-06-12T23:37:49.888Z,16.50
2017-06-12T23:40:18.162Z,16.40
2017-06-12T23:42:46.446Z,16.50
2017-06-12T23:45:14.725Z,16.40
2017-06-12T23:47:43.141Z,16.40
2017-06-12T23:50:12.168Z,16.50
2017-06-12T23:52:40.477Z,16.40
2017-06-12T23:55:08.756Z,16.50
2017-06-12T23:57:37.301Z,16.40
